首页
METAR-TAF:

METAR-TAF

机场 :

马丁斯堡, 西維吉尼亞州, 美国

纬度: 39-24-07N, 经度: 077-59-04W, 海拔: 170米

当前天气观测

该预报发布于23分钟前的16:53 UTC
静风
温度 8°C
湿度 46%
气压 1025 hPa
能見度: 16.1公里
天空无云

METAR: KMRB 171653Z 00000KT 10SM CLR 08/M03 A3027 RMK AO2 SLP253 T00781028

时间: 12:16 (17:16 UTC)

预报

该预报发布于5小时和49分钟前的11:27 UTC
预报有效从17日的 12点(UTC)到 18日的 12点(UTC)
风速3节,风向多变
能見度: 10公里
多云层高于25000英尺
从 17日的 1300点(UTC)
风速3节,风向多变
能見度: 10公里
散云层高于25000英尺
从 17日的 2000点(UTC)
风速4节,风向
能見度: 10公里
散云层高于25000英尺
从 18日的 0000点(UTC)
风速4节,风向东转东南
能見度: 10公里
多云层高于25000英尺

TAF: KMRB 171127Z 1712/1812 VRB03KT P6SM BKN250 FM171300 VRB03KT P6SM SCT250 FM172000 10004KT P6SM SCT250 FM180000 12004KT P6SM BKN250

超过4000个机场的气象观测和天气预报(METAR&TAF报告)。

可查询的气象台以黄色和红色小点在地图上表示。

将鼠标移到小点上方,可查看气象台名称。

然后点击查看天气观测和预报。

如需切换地图:点击带黑十字的绿色按钮放大地图;点击带横线的绿色按钮缩小地图;或者点击绿色箭头查看邻近地区的地图。


METAR-TAF: